createdAt,value
2023-05-22T00:00:21.067Z,16.35
2023-05-22T00:02:48.606Z,16.33
2023-05-22T00:05:15.726Z,16.22
2023-05-22T00:07:43.613Z,16.25
2023-05-22T00:10:11.238Z,16.38
2023-05-22T00:12:38.300Z,16.57
2023-05-22T00:15:07.823Z,16.37
2023-05-22T00:17:34.810Z,16.41
2023-05-22T00:20:08.158Z,16.56
2023-05-22T00:22:35.677Z,16.81
2023-05-22T00:25:03.217Z,16.79
2023-05-22T00:27:30.191Z,16.79
2023-05-22T00:29:57.203Z,16.72
2023-05-22T00:32:25.581Z,16.53
2023-05-22T00:34:52.760Z,16.70
2023-05-22T00:37:22.448Z,16.44
2023-05-22T00:39:49.514Z,16.62
2023-05-22T00:42:17.132Z,16.78
2023-05-22T00:44:44.068Z,16.87
2023-05-22T00:47:11.248Z,16.84
2023-05-22T00:49:39.890Z,16.62
2023-05-22T00:52:07.598Z,16.63
2023-05-22T00:54:34.885Z,16.70
2023-05-22T00:57:02.244Z,16.66
2023-05-22T00:59:29.938Z,16.66
2023-05-22T01:01:57.835Z,16.56
2023-05-22T01:04:25.956Z,16.72
2023-05-22T01:06:55.397Z,16.49
2023-05-22T01:09:22.994Z,16.69
2023-05-22T01:11:59.022Z,16.73
2023-05-22T01:14:34.216Z,16.33
2023-05-22T01:17:09.064Z,16.56
2023-05-22T01:20:01.322Z,16.34
2023-05-22T01:22:51.326Z,16.52
2023-05-22T01:25:36.758Z,16.62
2023-05-22T01:28:19.028Z,16.77
2023-05-22T01:30:53.429Z,16.63
2023-05-22T01:33:26.280Z,16.61
2023-05-22T01:35:57.520Z,16.54
2023-05-22T01:38:25.529Z,16.60
2023-05-22T01:40:54.017Z,16.71
2023-05-22T01:43:21.415Z,16.54
2023-05-22T01:45:49.818Z,16.57
2023-05-22T01:48:16.811Z,16.58
2023-05-22T01:50:45.464Z,16.56
2023-05-22T01:53:20.002Z,16.59
2023-05-22T01:55:56.044Z,16.58
2023-05-22T01:58:29.860Z,16.59
2023-05-22T02:01:00.963Z,16.47
2023-05-22T02:03:31.726Z,16.57
2023-05-22T02:06:01.624Z,16.47
2023-05-22T02:08:29.912Z,16.62
2023-05-22T02:10:58.013Z,16.32
2023-05-22T02:13:25.279Z,16.26
2023-05-22T02:15:52.907Z,16.22
2023-05-22T02:18:27.326Z,16.35
2023-05-22T02:20:54.191Z,16.34
2023-05-22T02:23:21.063Z,16.38
2023-05-22T02:25:47.901Z,16.54
2023-05-22T02:28:14.863Z,16.74
2023-05-22T02:30:41.886Z,16.63
2023-05-22T02:33:09.428Z,16.76
2023-05-22T02:35:37.754Z,16.86
2023-05-22T02:38:04.721Z,16.85
2023-05-22T02:40:31.692Z,16.48
2023-05-22T02:42:58.623Z,16.69
2023-05-22T02:45:25.682Z,16.43
2023-05-22T02:47:52.780Z,16.51
2023-05-22T02:50:19.744Z,16.66
2023-05-22T02:52:49.519Z,16.76
2023-05-22T02:55:16.426Z,16.76
2023-05-22T02:57:43.408Z,16.85
2023-05-22T03:00:11.732Z,16.80
2023-05-22T03:02:38.956Z,16.77
2023-05-22T03:05:07.172Z,16.75
2023-05-22T03:07:35.207Z,16.72
2023-05-22T03:10:03.829Z,16.76
2023-05-22T03:12:31.198Z,16.68
2023-05-22T03:14:58.204Z,16.71
2023-05-22T03:17:25.074Z,16.87
2023-05-22T03:19:51.950Z,16.72
2023-05-22T03:22:19.171Z,16.82
2023-05-22T03:24:46.093Z,16.64
2023-05-22T03:27:19.738Z,16.74
2023-05-22T03:29:46.603Z,16.71
2023-05-22T03:32:13.556Z,16.80
2023-05-22T03:34:40.492Z,16.60
2023-05-22T03:37:09.064Z,16.64
2023-05-22T03:39:36.099Z,16.69
2023-05-22T03:42:03.106Z,16.60
2023-05-22T03:44:31.366Z,16.77
2023-05-22T03:46:58.337Z,16.79
2023-05-22T03:49:25.374Z,16.61
2023-05-22T03:51:52.260Z,16.57
2023-05-22T03:54:19.115Z,16.62
2023-05-22T03:56:46.078Z,16.52
2023-05-22T03:59:13.074Z,16.64
2023-05-22T04:01:41.349Z,16.62
2023-05-22T04:04:09.602Z,16.53
2023-05-22T04:06:42.919Z,16.39
2023-05-22T04:09:11.505Z,16.64
2023-05-22T04:11:42.625Z,16.62
2023-05-22T04:14:09.839Z,16.58
2023-05-22T04:16:36.924Z,16.67
2023-05-22T04:19:05.910Z,16.63
2023-05-22T04:21:35.896Z,16.66
2023-05-22T04:24:07.498Z,16.65
2023-05-22T04:26:34.582Z,16.75
2023-05-22T04:29:02.293Z,16.78
2023-05-22T04:31:29.181Z,16.67
2023-05-22T04:33:56.159Z,16.78
2023-05-22T04:36:26.173Z,16.82
2023-05-22T04:38:53.222Z,16.75
2023-05-22T04:41:22.683Z,16.75
2023-05-22T04:43:49.918Z,16.80
2023-05-22T04:46:16.930Z,16.84
2023-05-22T04:48:43.917Z,16.72
2023-05-22T04:51:10.862Z,16.93
2023-05-22T04:53:39.171Z,16.78
2023-05-22T04:56:07.127Z,16.62
2023-05-22T04:58:33.947Z,16.77
2023-05-22T05:01:00.931Z,16.77
2023-05-22T05:03:28.641Z,16.76
2023-05-22T05:05:56.815Z,16.77
2023-05-22T05:08:23.663Z,16.82
2023-05-22T05:10:51.930Z,16.87
2023-05-22T05:13:18.794Z,17.01
2023-05-22T05:15:45.913Z,17.05
2023-05-22T05:18:12.877Z,16.82
2023-05-22T05:20:40.131Z,16.76
2023-05-22T05:23:07.188Z,16.89
2023-05-22T05:25:35.989Z,16.77
2023-05-22T05:28:10.658Z,16.95
2023-05-22T05:30:38.554Z,16.96
2023-05-22T05:33:05.723Z,16.90
2023-05-22T05:35:32.823Z,16.86
2023-05-22T05:37:59.713Z,17.09
2023-05-22T05:40:26.583Z,16.85
2023-05-22T05:42:53.503Z,17.16
2023-05-22T05:45:21.954Z,17.10
2023-05-22T05:47:48.958Z,16.83
2023-05-22T05:50:16.003Z,16.86
2023-05-22T05:52:42.978Z,17.02
2023-05-22T05:55:10.207Z,17.19
2023-05-22T05:57:37.159Z,17.16
2023-05-22T06:00:05.701Z,17.14
2023-05-22T06:02:34.315Z,17.32
2023-05-22T06:05:02.264Z,17.28
2023-05-22T06:07:29.791Z,17.29
2023-05-22T06:09:56.702Z,17.30
2023-05-22T06:12:23.840Z,17.43
2023-05-22T06:14:50.794Z,17.52
2023-05-22T06:17:17.767Z,17.47
2023-05-22T06:19:46.123Z,17.44
2023-05-22T06:22:13.000Z,17.30
2023-05-22T06:24:39.988Z,17.61
2023-05-22T06:27:07.065Z,17.48
2023-05-22T06:29:33.935Z,17.61
2023-05-22T06:32:00.891Z,17.30
2023-05-22T06:34:28.179Z,17.45
2023-05-22T06:36:56.966Z,17.53
2023-05-22T06:39:23.884Z,17.58
2023-05-22T06:41:51.110Z,17.55
2023-05-22T06:44:18.059Z,17.98
2023-05-22T06:46:45.072Z,18.13
2023-05-22T06:49:12.022Z,17.83
2023-05-22T06:51:38.902Z,17.69
2023-05-22T06:54:08.172Z,17.86
2023-05-22T06:56:35.213Z,17.83
2023-05-22T06:59:02.151Z,18.26
2023-05-22T07:01:29.474Z,18.06
2023-05-22T07:03:58.268Z,17.95
2023-05-22T07:06:25.167Z,18.25
2023-05-22T07:08:52.115Z,18.44
2023-05-22T07:11:20.977Z,18.45
2023-05-22T07:13:47.888Z,18.29
2023-05-22T07:16:15.132Z,18.67
2023-05-22T07:18:42.296Z,18.82
2023-05-22T07:21:09.198Z,18.69
2023-05-22T07:23:36.094Z,18.67
2023-05-22T07:26:03.025Z,18.91
2023-05-22T07:28:31.473Z,19.14
2023-05-22T07:30:58.567Z,18.91
2023-05-22T07:33:25.663Z,18.60
2023-05-22T07:35:52.954Z,18.97
2023-05-22T07:38:20.349Z,18.61
2023-05-22T07:40:47.198Z,18.64
2023-05-22T07:43:15.542Z,18.58
2023-05-22T07:45:44.345Z,18.58
2023-05-22T07:48:12.008Z,19.04
2023-05-22T07:50:39.091Z,19.18
2023-05-22T07:53:06.508Z,18.64
2023-05-22T07:55:33.442Z,18.55
2023-05-22T07:58:00.357Z,18.56
2023-05-22T08:00:27.412Z,18.81
2023-05-22T08:02:55.876Z,18.93
2023-05-22T08:05:23.000Z,18.71
2023-05-22T08:07:51.478Z,18.74
2023-05-22T08:10:19.236Z,18.58
2023-05-22T08:12:46.160Z,18.73
2023-05-22T08:15:13.671Z,18.96
2023-05-22T08:17:40.748Z,18.98
2023-05-22T08:20:10.431Z,19.27
2023-05-22T08:22:40.488Z,18.91
2023-05-22T08:25:08.124Z,19.38
2023-05-22T08:27:38.115Z,19.29
2023-05-22T08:30:06.819Z,19.47
2023-05-22T08:32:41.741Z,19.46
2023-05-22T08:35:11.063Z,19.29
2023-05-22T08:37:38.044Z,19.40
2023-05-22T08:40:07.223Z,19.70
2023-05-22T08:42:34.368Z,19.35
2023-05-22T08:45:01.445Z,19.15
2023-05-22T08:47:28.852Z,19.37
2023-05-22T08:49:59.391Z,19.63
2023-05-22T08:52:35.245Z,19.43
2023-05-22T08:55:05.496Z,19.43
2023-05-22T08:57:33.462Z,19.54
2023-05-22T09:00:01.111Z,19.21
2023-05-22T09:02:28.869Z,19.42
2023-05-22T09:04:57.804Z,19.18
2023-05-22T09:07:27.969Z,19.57
2023-05-22T09:09:56.754Z,19.65
2023-05-22T09:12:27.522Z,19.49
2023-05-22T09:14:56.419Z,19.46
2023-05-22T09:17:24.616Z,19.31
2023-05-22T09:19:51.622Z,19.42
2023-05-22T09:22:19.320Z,19.78
2023-05-22T09:24:47.333Z,19.84
2023-05-22T09:27:16.255Z,19.98
2023-05-22T09:29:52.975Z,19.80
2023-05-22T09:32:21.791Z,19.47
2023-05-22T09:37:16.787Z,19.66
2023-05-22T09:39:45.234Z,19.48
2023-05-22T09:42:14.995Z,19.66
2023-05-22T09:44:48.404Z,19.67
2023-05-22T09:47:15.753Z,19.82
2023-05-22T09:49:43.486Z,19.48
2023-05-22T09:52:12.674Z,19.45
2023-05-22T09:54:49.398Z,19.54
2023-05-22T09:57:20.820Z,19.80
2023-05-22T09:59:55.662Z,19.79
2023-05-22T10:02:23.714Z,19.73
2023-05-22T10:04:51.741Z,19.71
2023-05-22T10:07:21.938Z,20.19
2023-05-22T10:09:52.871Z,20.73
2023-05-22T10:12:22.878Z,20.27
2023-05-22T10:14:52.875Z,19.92
2023-05-22T10:17:20.771Z,20.31
2023-05-22T10:19:48.576Z,20.63
2023-05-22T10:22:20.931Z,20.79
2023-05-22T10:24:49.216Z,20.62
2023-05-22T10:27:16.135Z,21.21
2023-05-22T10:29:49.273Z,21.23
2023-05-22T10:32:27.925Z,21.09
2023-05-22T10:35:03.922Z,20.78
2023-05-22T10:37:42.272Z,21.45
2023-05-22T10:40:12.095Z,21.15
2023-05-22T10:42:39.663Z,20.85
2023-05-22T10:45:09.652Z,21.26
2023-05-22T10:47:38.180Z,21.36
2023-05-22T10:50:10.128Z,21.69
2023-05-22T10:52:37.321Z,21.40
2023-05-22T10:55:07.694Z,21.50
2023-05-22T10:57:35.095Z,21.46
2023-05-22T11:00:10.835Z,22.06
2023-05-22T11:02:43.953Z,22.32
2023-05-22T11:05:36.794Z,22.40
2023-05-22T11:08:37.531Z,22.24
2023-05-22T11:11:12.968Z,22.18
2023-05-22T11:13:40.166Z,22.65
2023-05-22T11:16:09.523Z,22.87
2023-05-22T11:18:38.193Z,22.90
2023-05-22T11:21:06.204Z,22.65
2023-05-22T11:23:37.657Z,22.80
2023-05-22T11:26:23.549Z,22.88
2023-05-22T11:28:53.343Z,22.99
2023-05-22T11:31:23.241Z,22.67
2023-05-22T11:33:51.672Z,22.64
2023-05-22T11:36:19.174Z,22.25
2023-05-22T11:38:46.276Z,22.52
2023-05-22T11:41:13.403Z,22.62
2023-05-22T11:43:42.949Z,23.53
2023-05-22T11:46:11.317Z,23.09
2023-05-22T11:48:41.128Z,23.80
2023-05-22T11:51:10.506Z,24.24
2023-05-22T11:53:37.588Z,24.52
2023-05-22T11:56:05.436Z,23.78
2023-05-22T11:58:32.751Z,23.99
2023-05-22T12:01:02.252Z,23.46
2023-05-22T12:03:29.999Z,23.35
2023-05-22T12:05:57.789Z,23.28
2023-05-22T12:08:26.537Z,22.96
2023-05-22T12:10:54.651Z,22.79
2023-05-22T12:13:26.803Z,22.65
2023-05-22T12:15:55.572Z,22.17
2023-05-22T12:18:22.479Z,21.69
2023-05-22T12:20:54.510Z,21.45
2023-05-22T12:23:22.670Z,21.27
2023-05-22T12:25:58.557Z,21.25
2023-05-22T12:28:25.772Z,20.95
2023-05-22T12:30:53.776Z,20.27
2023-05-22T12:33:20.784Z,20.50
2023-05-22T12:35:51.231Z,19.91
2023-05-22T12:38:21.075Z,20.17
2023-05-22T12:40:48.354Z,20.12
2023-05-22T12:43:16.663Z,20.22
2023-05-22T12:45:43.534Z,19.83
2023-05-22T12:48:10.433Z,19.83
2023-05-22T12:50:37.764Z,19.54
2023-05-22T12:53:04.861Z,20.14
2023-05-22T12:55:31.891Z,20.12
2023-05-22T12:57:58.802Z,20.57
2023-05-22T13:00:27.155Z,20.95
2023-05-22T13:02:54.119Z,21.19
2023-05-22T13:05:21.601Z,20.85
2023-05-22T13:07:48.614Z,20.84
2023-05-22T13:10:15.875Z,20.53
2023-05-22T13:12:44.742Z,20.68
2023-05-22T13:15:13.852Z,21.00
2023-05-22T13:17:42.175Z,21.33
2023-05-22T13:20:10.187Z,21.31
2023-05-22T13:22:37.209Z,21.10
2023-05-22T13:25:04.773Z,21.20
2023-05-22T13:27:33.718Z,21.72
2023-05-22T13:30:00.995Z,21.38
2023-05-22T13:32:27.947Z,21.42
2023-05-22T13:34:56.255Z,21.75
2023-05-22T13:37:23.357Z,22.15
2023-05-22T13:39:50.378Z,21.86
2023-05-22T13:42:17.321Z,22.13
2023-05-22T13:44:44.229Z,22.17
2023-05-22T13:47:11.307Z,22.80
2023-05-22T13:49:38.184Z,22.45
2023-05-22T13:52:06.654Z,22.87
2023-05-22T13:54:33.569Z,21.92
2023-05-22T13:57:02.550Z,22.37
2023-05-22T13:59:29.708Z,22.04
2023-05-22T14:01:56.855Z,22.25
2023-05-22T14:04:23.915Z,22.09
2023-05-22T14:06:51.120Z,22.13
2023-05-22T14:09:19.766Z,21.65
2023-05-22T14:11:46.912Z,20.94
2023-05-22T14:14:13.776Z,21.08
2023-05-22T14:16:40.778Z,20.89
2023-05-22T14:19:07.924Z,21.34
2023-05-22T14:21:34.931Z,21.28
2023-05-22T14:24:04.427Z,21.72
2023-05-22T14:26:32.903Z,21.69
2023-05-22T14:29:00.026Z,21.60
2023-05-22T14:31:29.019Z,21.77
2023-05-22T14:33:56.209Z,22.07
2023-05-22T14:36:23.372Z,21.87
2023-05-22T14:38:50.793Z,21.54
2023-05-22T14:41:17.895Z,21.48
2023-05-22T14:43:46.224Z,21.44
2023-05-22T14:46:13.249Z,21.64
2023-05-22T14:48:40.214Z,22.08
2023-05-22T14:51:07.091Z,21.88
2023-05-22T14:53:34.086Z,21.83
2023-05-22T14:56:00.974Z,21.73
2023-05-22T14:58:27.804Z,21.28
2023-05-22T15:00:56.102Z,21.51
2023-05-22T15:03:23.684Z,21.62
2023-05-22T15:05:50.873Z,21.58
2023-05-22T15:08:19.624Z,21.59
2023-05-22T15:10:46.660Z,21.28
2023-05-22T15:13:14.548Z,21.18
2023-05-22T15:15:42.004Z,21.24
2023-05-22T15:18:10.674Z,21.39
2023-05-22T15:20:37.689Z,21.47
2023-05-22T15:23:05.706Z,21.41
2023-05-22T15:25:36.397Z,20.90
2023-05-22T15:28:06.480Z,20.80
2023-05-22T15:30:38.944Z,21.04
2023-05-22T15:33:05.922Z,20.94
2023-05-22T15:35:34.224Z,21.10
2023-05-22T15:38:03.281Z,20.97
2023-05-22T15:40:30.561Z,20.65
2023-05-22T15:42:57.377Z,20.85
2023-05-22T15:45:24.221Z,20.82
2023-05-22T15:47:53.711Z,20.87
2023-05-22T15:50:20.637Z,20.96
2023-05-22T15:52:48.806Z,20.62
2023-05-22T15:55:15.669Z,20.87
2023-05-22T15:57:42.477Z,21.16
2023-05-22T16:00:10.398Z,21.24
2023-05-22T16:02:37.421Z,21.25
2023-05-22T16:05:04.930Z,21.16
2023-05-22T16:07:32.058Z,21.25
2023-05-22T16:10:00.394Z,21.57
2023-05-22T16:12:27.259Z,21.46
2023-05-22T16:15:00.413Z,21.44
2023-05-22T16:17:27.631Z,21.64
2023-05-22T16:19:54.525Z,21.81
2023-05-22T16:22:21.397Z,21.44
2023-05-22T16:24:48.315Z,21.53
2023-05-22T16:27:16.978Z,21.59
2023-05-22T16:29:44.006Z,21.36
2023-05-22T16:32:11.040Z,21.37
2023-05-22T16:34:37.903Z,21.33
2023-05-22T16:37:05.097Z,21.47
2023-05-22T16:39:31.947Z,21.58
2023-05-22T16:41:58.765Z,21.60
2023-05-22T16:44:27.828Z,21.30
2023-05-22T16:46:54.788Z,21.20
2023-05-22T16:49:21.658Z,20.75
2023-05-22T16:51:48.513Z,21.14
2023-05-22T16:54:15.436Z,20.73
2023-05-22T16:56:42.543Z,20.79
2023-05-22T16:59:09.386Z,21.38
2023-05-22T17:01:37.609Z,21.64
2023-05-22T17:04:04.744Z,21.49
2023-05-22T17:06:31.813Z,21.58
2023-05-22T17:08:58.739Z,20.96
2023-05-22T17:11:26.366Z,21.07
2023-05-22T17:13:53.243Z,21.12
2023-05-22T17:16:20.971Z,21.40
2023-05-22T17:18:49.378Z,21.28
2023-05-22T17:21:17.640Z,21.49
2023-05-22T17:23:44.549Z,21.63
2023-05-22T17:26:11.482Z,21.37
2023-05-22T17:28:38.313Z,21.44
2023-05-22T17:31:05.338Z,21.13
2023-05-22T17:33:32.166Z,20.90
2023-05-22T17:36:00.660Z,21.09
2023-05-22T17:38:27.473Z,20.94
2023-05-22T17:40:54.425Z,20.66
2023-05-22T17:43:21.477Z,20.41
2023-05-22T17:45:52.897Z,20.26
2023-05-22T17:48:23.848Z,20.45
2023-05-22T17:50:52.050Z,20.56
2023-05-22T17:53:21.088Z,20.25
2023-05-22T17:55:49.652Z,20.32
2023-05-22T17:58:17.203Z,20.26
2023-05-22T18:00:45.759Z,20.21
2023-05-22T18:03:13.465Z,20.23
2023-05-22T18:05:40.928Z,20.21
2023-05-22T18:08:07.856Z,20.13
2023-05-22T18:10:36.305Z,19.93
2023-05-22T18:13:03.219Z,20.13
2023-05-22T18:15:30.216Z,19.72
2023-05-22T18:17:57.187Z,19.97
2023-05-22T18:20:24.214Z,19.57
2023-05-22T18:22:51.191Z,19.67
2023-05-22T18:25:18.108Z,19.88
2023-05-22T18:27:46.965Z,19.50
2023-05-22T18:30:14.660Z,19.29
2023-05-22T18:32:41.701Z,19.39
2023-05-22T18:35:09.495Z,19.22
2023-05-22T18:37:37.074Z,19.38
2023-05-22T18:40:06.851Z,19.15
2023-05-22T18:42:33.722Z,19.27
2023-05-22T18:45:02.207Z,18.90
2023-05-22T18:47:29.195Z,18.96
2023-05-22T18:49:56.180Z,18.65
2023-05-22T18:52:23.028Z,18.89
2023-05-22T18:54:49.891Z,18.90
2023-05-22T18:57:16.897Z,18.38
2023-05-22T18:59:43.817Z,18.41
2023-05-22T19:02:12.041Z,18.38
2023-05-22T19:04:38.977Z,18.48
2023-05-22T19:07:05.938Z,18.32
2023-05-22T19:09:32.829Z,18.50
2023-05-22T19:11:59.720Z,18.26
2023-05-22T19:14:26.805Z,18.30
2023-05-22T19:16:53.718Z,18.13
2023-05-22T19:19:22.055Z,17.64
2023-05-22T19:21:49.142Z,17.96
2023-05-22T19:24:16.084Z,17.47
2023-05-22T19:26:42.995Z,17.64
2023-05-22T19:29:09.855Z,17.60
2023-05-22T19:31:36.839Z,17.65
2023-05-22T19:34:04.120Z,17.35
2023-05-22T19:36:32.679Z,17.53
2023-05-22T19:38:59.566Z,17.83
2023-05-22T19:41:26.753Z,17.48
2023-05-22T19:43:53.627Z,17.17
2023-05-22T19:46:21.201Z,17.37
2023-05-22T19:48:48.172Z,17.29
2023-05-22T19:51:15.023Z,17.15
2023-05-22T19:53:44.414Z,17.15
2023-05-22T19:56:11.607Z,17.08
2023-05-22T19:58:38.524Z,17.04
2023-05-22T20:01:05.593Z,16.26
2023-05-22T20:03:32.513Z,16.65
2023-05-22T20:05:59.640Z,16.80
2023-05-22T20:08:26.862Z,17.21
2023-05-22T20:10:55.757Z,16.87
2023-05-22T20:13:22.630Z,17.31
2023-05-22T20:15:51.437Z,17.05
2023-05-22T20:18:18.733Z,17.13
2023-05-22T20:20:45.669Z,17.19
2023-05-22T20:23:12.569Z,16.87
2023-05-22T20:25:39.732Z,16.82
2023-05-22T20:28:08.332Z,17.02
2023-05-22T20:30:35.357Z,16.99
2023-05-22T20:33:02.392Z,17.24
2023-05-22T20:35:30.515Z,17.38
2023-05-22T20:37:58.457Z,17.19
2023-05-22T20:40:26.556Z,17.13
2023-05-22T20:42:53.655Z,17.20
2023-05-22T20:45:22.333Z,17.29
2023-05-22T20:47:49.333Z,17.23
2023-05-22T20:50:16.345Z,16.98
2023-05-22T20:52:45.924Z,17.08
2023-05-22T20:55:13.134Z,17.11
2023-05-22T20:57:40.122Z,16.66
2023-05-22T21:00:11.131Z,16.13
2023-05-22T21:02:39.473Z,16.65
2023-05-22T21:05:06.779Z,17.14
2023-05-22T21:07:34.161Z,16.79
2023-05-22T21:10:01.159Z,16.95
2023-05-22T21:12:27.952Z,16.68
2023-05-22T21:14:54.832Z,16.94
2023-05-22T21:17:21.765Z,17.10
2023-05-22T21:19:50.093Z,16.33
2023-05-22T21:22:17.008Z,16.04
2023-05-22T21:24:43.914Z,15.97
2023-05-22T21:27:10.856Z,16.43
2023-05-22T21:29:37.675Z,15.94
2023-05-22T21:32:05.456Z,15.59
2023-05-22T21:34:32.306Z,15.90
2023-05-22T21:37:00.593Z,16.03
2023-05-22T21:39:27.469Z,15.88
2023-05-22T21:41:54.349Z,16.07
2023-05-22T21:44:21.239Z,15.94
2023-05-22T21:46:48.226Z,15.96
2023-05-22T21:49:15.265Z,15.85
2023-05-22T21:51:42.127Z,15.68
2023-05-22T21:54:10.593Z,16.04
2023-05-22T21:56:38.632Z,16.29
2023-05-22T21:59:05.746Z,16.05
2023-05-22T22:01:32.950Z,16.48
2023-05-22T22:03:59.996Z,16.24
2023-05-22T22:06:26.922Z,15.87
2023-05-22T22:08:53.770Z,15.91
2023-05-22T22:11:22.613Z,15.85
2023-05-22T22:13:49.570Z,15.76
2023-05-22T22:16:16.868Z,15.71
2023-05-22T22:18:44.216Z,15.70
2023-05-22T22:21:12.066Z,16.07
2023-05-22T22:23:38.930Z,16.06
2023-05-22T22:26:05.861Z,16.22
2023-05-22T22:28:34.426Z,16.12
2023-05-22T22:31:01.545Z,15.87
2023-05-22T22:33:28.490Z,15.77
2023-05-22T22:35:56.385Z,15.66
2023-05-22T22:38:23.372Z,15.80
2023-05-22T22:40:50.244Z,15.51
2023-05-22T22:43:17.044Z,15.66
2023-05-22T22:45:45.572Z,15.54
2023-05-22T22:48:12.536Z,15.82
2023-05-22T22:50:39.614Z,16.20
2023-05-22T22:53:06.743Z,15.80
2023-05-22T22:55:33.909Z,15.74
2023-05-22T22:58:01.964Z,15.49
2023-05-22T23:00:29.251Z,15.82
2023-05-22T23:02:57.553Z,15.97
2023-05-22T23:05:24.709Z,15.96
2023-05-22T23:07:51.590Z,15.80
2023-05-22T23:10:18.736Z,16.22
2023-05-22T23:12:48.964Z,16.34
2023-05-22T23:15:16.141Z,16.04
2023-05-22T23:17:43.040Z,16.10
2023-05-22T23:20:11.665Z,16.24
2023-05-22T23:22:38.680Z,16.28
2023-05-22T23:25:06.588Z,16.42
2023-05-22T23:27:33.496Z,16.54
2023-05-22T23:30:00.637Z,16.47
2023-05-22T23:32:27.645Z,16.51
2023-05-22T23:34:54.504Z,16.62
2023-05-22T23:37:22.711Z,16.51
2023-05-22T23:39:49.659Z,16.63
2023-05-22T23:42:17.035Z,16.70
2023-05-22T23:44:43.922Z,16.42
2023-05-22T23:47:10.821Z,16.71
2023-05-22T23:49:37.703Z,16.43
2023-05-22T23:52:04.857Z,16.51
2023-05-22T23:54:33.022Z,16.40
2023-05-22T23:56:59.915Z,16.39
2023-05-22T23:59:26.765Z,16.23
